Time;durP1;ratioP1;P1;durP2;ratioP2;P2;SDS_P1;SDS_P2;PMS_P1;PMS_P2;Temp;Humidity;BMP_temperature;BMP_pressure;BME280_temperature;BME280_humidity;BME280_pressure;Samples;Min_cycle;Max_cycle;Signal;HPM_P1;HPM_P2
2022/05/18 00:00:39;;;;;;;2.50;1.00;;;9.20;1.00;;;;;;5054226;28;20280;-87
2022/05/18 00:03:09;;;;;;;1.53;1.13;;;9.20;1.00;;;;;;5054602;28;20217;-88
2022/05/18 00:05:38;;;;;;;11.73;7.47;;;9.20;1.00;;;;;;5054260;28;20709;-89
2022/05/18 00:08:07;;;;;;;2.37;1.30;;;9.10;1.00;;;;;;5054774;28;20220;-87
2022/05/18 00:10:35;;;;;;;1.83;1.30;;;9.10;1.00;;;;;;5054320;28;20664;-86
2022/05/18 00:13:03;;;;;;;1.30;0.90;;;9.00;1.00;;;;;;5054625;28;20210;-88
2022/05/18 00:15:32;;;;;;;1.40;1.00;;;8.90;1.00;;;;;;5054525;28;20264;-88
2022/05/18 00:18:00;;;;;;;2.20;1.00;;;8.80;1.00;;;;;;5053649;28;20249;-88
2022/05/18 00:20:28;;;;;;;2.77;1.13;;;8.80;1.00;;;;;;5054338;28;20207;-86
2022/05/18 00:22:58;;;;;;;2.73;1.10;;;8.70;1.00;;;;;;5054383;28;20219;-85
2022/05/18 00:25:29;;;;;;;3.90;1.20;;;8.60;1.00;;;;;;5053908;28;20272;-87
2022/05/18 00:27:56;;;;;;;3.70;1.30;;;8.60;1.00;;;;;;5054204;28;20207;-88
2022/05/18 00:30:26;;;;;;;1.87;1.10;;;8.60;1.00;;;;;;5053641;28;20191;-88
2022/05/18 00:32:55;;;;;;;2.43;1.00;;;8.50;1.00;;;;;;5053747;28;20661;-88
2022/05/18 00:35:25;;;;;;;1.50;1.13;;;8.50;1.00;;;;;;5054236;28;20193;-89
2022/05/18 00:37:52;;;;;;;1.93;1.03;;;8.40;1.00;;;;;;5054031;28;20235;-85
2022/05/18 00:40:21;;;;;;;2.97;1.10;;;8.40;1.00;;;;;;5053465;28;20269;-88
2022/05/18 00:42:48;;;;;;;2.17;1.10;;;8.30;1.00;;;;;;5053801;28;20673;-87
2022/05/18 00:45:17;;;;;;;2.70;1.00;;;8.20;1.00;;;;;;5053810;28;20208;-88
2022/05/18 00:47:45;;;;;;;1.60;1.10;;;8.20;1.00;;;;;;5053799;28;20204;-89
2022/05/18 00:50:20;;;;;;;2.37;1.07;;;8.20;1.00;;;;;;5053780;28;20213;-88
2022/05/18 00:52:54;;;;;;;1.57;1.00;;;8.10;1.00;;;;;;5053735;28;20205;-87
2022/05/18 00:55:25;;;;;;;1.73;1.10;;;8.10;1.00;;;;;;5053516;28;20229;-86
2022/05/18 00:57:57;;;;;;;2.83;1.07;;;8.00;1.00;;;;;;5053530;28;20210;-87
2022/05/18 01:00:25;;;;;;;4.63;1.23;;;7.90;1.00;;;;;;5053308;28;20197;-88
2022/05/18 01:02:57;;;;;;;2.70;1.30;;;7.90;1.00;;;;;;5053041;28;20284;-87
2022/05/18 01:05:30;;;;;;;2.73;1.40;;;7.90;1.00;;;;;;5053658;28;20204;-91
2022/05/18 01:08:00;;;;;;;4.57;1.33;;;7.90;1.00;;;;;;5053057;28;20708;-89
2022/05/18 01:10:28;;;;;;;3.60;1.60;;;7.90;1.00;;;;;;5052809;28;20657;-84
2022/05/18 01:12:56;;;;;;;2.30;1.20;;;7.90;1.00;;;;;;5053467;28;20205;-89
2022/05/18 01:15:24;;;;;;;2.93;1.50;;;7.90;1.00;;;;;;5053202;28;20197;-88
2022/05/18 01:17:56;;;;;;;3.97;1.30;;;7.90;1.00;;;;;;5052751;28;20205;-89
2022/05/18 01:20:29;;;;;;;2.47;1.20;;;7.90;1.00;;;;;;5053408;28;20207;-90
2022/05/18 01:23:07;;;;;;;2.60;1.13;;;7.90;1.00;;;;;;5053004;28;20211;-89
2022/05/18 01:26:04;;;;;;;3.40;1.60;;;7.90;1.00;;;;;;5053253;28;20207;-88
2022/05/18 01:28:37;;;;;;;3.30;1.50;;;7.80;1.00;;;;;;5052632;28;20541;-85
2022/05/18 01:31:04;;;;;;;1.53;1.13;;;7.80;1.00;;;;;;5052926;28;20601;-87
2022/05/18 01:33:33;;;;;;;1.97;1.30;;;7.70;1.00;;;;;;5053070;28;20203;-88
2022/05/18 01:36:01;;;;;;;2.10;1.20;;;7.70;1.00;;;;;;5052288;28;20229;-86
2022/05/18 01:38:29;;;;;;;2.43;1.53;;;7.70;1.00;;;;;;5053022;28;20210;-87
2022/05/18 01:41:03;;;;;;;3.87;1.30;;;7.70;1.00;;;;;;5053379;28;20197;-86
2022/05/18 01:43:36;;;;;;;3.20;1.00;;;7.80;99.90;;;;;;5052760;28;20252;-89
2022/05/18 01:46:06;;;;;;;1.83;1.27;;;7.60;1.00;;;;;;5049522;28;20210;-90
2022/05/18 01:48:34;;;;;;;2.10;1.40;;;;;;;;;;5032814;28;20260;-88
2022/05/18 01:51:05;;;;;;;2.00;1.17;;;7.60;1.00;;;;;;5032937;28;20201;-88
2022/05/18 01:53:34;;;;;;;2.37;1.30;;;7.50;1.00;;;;;;5032840;28;20293;-88
2022/05/18 01:56:02;;;;;;;2.90;1.10;;;7.50;1.00;;;;;;5032858;28;20197;-88
2022/05/18 01:58:30;;;;;;;2.17;1.20;;;7.50;1.00;;;;;;5032463;28;20208;-86
2022/05/18 02:01:01;;;;;;;3.10;1.23;;;7.50;1.00;;;;;;5044268;28;20276;-87
2022/05/18 02:03:29;;;;;;;2.97;1.27;;;7.40;1.00;;;;;;5052328;28;20224;-86
2022/05/18 02:05:56;;;;;;;1.63;1.07;;;7.40;1.00;;;;;;5052014;28;20588;-89
2022/05/18 02:08:24;;;;;;;4.07;1.40;;;7.40;1.00;;;;;;5052120;28;20208;-87
2022/05/18 02:10:51;;;;;;;2.03;1.20;;;7.30;1.00;;;;;;5052152;28;20191;-87
2022/05/18 02:13:21;;;;;;;2.43;1.00;;;7.30;1.00;;;;;;5052216;28;20205;-88
2022/05/18 02:15:49;;;;;;;2.70;1.20;;;7.30;1.00;;;;;;5052248;28;20201;-86
2022/05/18 02:18:18;;;;;;;2.73;1.00;;;7.30;1.00;;;;;;5052222;28;20201;-88
2022/05/18 02:20:46;;;;;;;3.07;1.20;;;7.20;1.00;;;;;;5051907;28;20224;-86
2022/05/18 02:23:14;;;;;;;3.87;1.10;;;7.20;1.00;;;;;;5052011;28;20262;-88
2022/05/18 02:25:41;;;;;;;2.80;1.20;;;7.20;1.00;;;;;;5052454;28;20199;-87
2022/05/18 02:28:09;;;;;;;1.53;1.00;;;7.20;1.00;;;;;;5052312;28;20231;-89
2022/05/18 02:30:36;;;;;;;3.27;1.37;;;7.10;1.00;;;;;;5052024;28;20196;-86
2022/05/18 02:33:03;;;;;;;2.50;1.20;;;7.10;1.00;;;;;;5052089;28;20200;-87
2022/05/18 02:35:33;;;;;;;2.00;1.30;;;7.10;1.00;;;;;;5052101;28;20201;-88
2022/05/18 02:38:00;;;;;;;3.03;1.10;;;7.10;1.00;;;;;;5051644;28;20624;-86
2022/05/18 02:40:27;;;;;;;2.10;1.13;;;7.00;1.00;;;;;;5053101;28;20204;-87
2022/05/18 02:42:55;;;;;;;3.17;1.80;;;7.00;1.00;;;;;;5056011;28;20277;-87
2022/05/18 02:45:23;;;;;;;2.23;1.10;;;6.90;1.00;;;;;;5055690;28;20624;-85
2022/05/18 02:47:50;;;;;;;2.67;1.10;;;6.90;1.00;;;;;;5055196;28;20560;-87
2022/05/18 02:50:18;;;;;;;2.33;1.10;;;6.90;1.00;;;;;;5055883;28;20215;-88
2022/05/18 02:52:47;;;;;;;3.70;1.47;;;6.90;1.00;;;;;;5055791;28;20235;-88
2022/05/18 02:57:59;;;;;;;2.93;1.30;;;6.80;1.00;;;;;;5055363;28;20181;-86
2022/05/18 03:00:27;;;;;;;2.27;0.90;;;6.80;1.00;;;;;;5055523;28;20661;-86
2022/05/18 03:02:54;;;;;;;1.63;1.10;;;6.80;1.00;;;;;;5060874;28;20683;-85
2022/05/18 03:05:21;;;;;;;1.70;1.10;;;6.80;1.00;;;;;;5065481;28;20277;-85
2022/05/18 03:07:49;;;;;;;2.53;1.20;;;6.80;1.00;;;;;;5059363;28;20200;-84
2022/05/18 03:10:18;;;;;;;1.43;1.10;;;6.80;1.00;;;;;;5059480;28;20188;-84
2022/05/18 03:12:46;;;;;;;3.17;1.27;;;6.80;1.00;;;;;;5063911;28;20189;-87
2022/05/18 03:15:19;;;;;;;1.60;1.07;;;6.80;1.00;;;;;;5059394;28;20279;-85
2022/05/18 03:17:46;;;;;;;3.10;1.30;;;6.80;1.00;;;;;;5059655;28;20203;-85
2022/05/18 03:23:33;;;;;;;2.03;1.30;;;6.80;1.00;;;;;;5059278;28;20189;-85
2022/05/18 03:25:48;;;;;;;2.77;1.23;;;6.80;1.00;;;;;;5061043;28;20227;-86
2022/05/18 03:28:15;;;;;;;1.23;0.93;;;6.80;1.00;;;;;;5060543;28;20318;-85
2022/05/18 03:30:42;;;;;;;2.13;1.20;;;6.90;1.00;;;;;;5058051;28;20247;-85
2022/05/18 03:33:10;;;;;;;2.27;1.10;;;6.90;1.00;;;;;;5060467;28;20226;-89
2022/05/18 03:35:40;;;;;;;2.60;1.10;;;6.90;1.00;;;;;;5056819;28;20204;-83
2022/05/18 03:38:09;;;;;;;2.03;0.90;;;7.00;1.00;;;;;;5062298;28;20216;-85
2022/05/18 03:40:37;;;;;;;1.93;1.00;;;7.00;1.00;;;;;;5059631;28;20710;-85
2022/05/18 03:43:11;;;;;;;3.33;1.17;;;7.00;1.00;;;;;;5058231;28;20199;-88
2022/05/18 03:45:38;;;;;;;1.63;1.10;;;7.10;1.00;;;;;;5058223;28;20263;-86
2022/05/18 03:48:07;;;;;;;1.80;1.00;;;7.10;1.00;;;;;;5062373;28;20200;-85
2022/05/18 03:53:24;;;;;;;1.87;1.03;;;7.80;1.00;;;;;;5053315;28;20203;-84
2022/05/18 03:56:01;;;;;;;;;;;;;;;;;;;;;
2022/05/18 03:58:29;;;;;;;4.20;1.20;;;10.10;1.00;;;;;;5060236;28;20288;-86
2022/05/18 04:01:00;;;;;;;1.50;0.90;;;11.20;1.00;;;;;;5056706;28;20203;-86
2022/05/18 04:03:31;;;;;;;2.50;1.00;;;12.20;1.00;;;;;;5058916;28;20230;-86
2022/05/18 04:05:58;;;;;;;2.80;0.90;;;13.10;1.00;;;;;;5060505;28;20195;-83
2022/05/18 04:08:26;;;;;;;2.40;1.03;;;13.90;1.00;;;;;;5063213;28;20209;-86
2022/05/18 04:10:55;;;;;;;3.40;0.90;;;14.70;1.00;;;;;;5059884;28;20192;-86
2022/05/18 04:13:25;;;;;;;3.88;1.10;;;15.50;1.00;;;;;;5058780;28;20565;-84
2022/05/18 04:15:54;;;;;;;12.38;1.45;;;16.40;1.00;;;;;;5058768;28;20203;-89
2022/05/18 04:18:25;;;;;;;4.75;0.90;;;17.10;1.00;;;;;;5067774;28;20196;-91
2022/05/18 04:20:58;;;;;;;10.25;1.38;;;17.50;1.00;;;;;;5066790;28;20217;-90
2022/05/18 04:23:27;;;;;;;6.00;1.48;;;18.10;1.00;;;;;;5075444;28;25072;-85
2022/05/18 04:26:02;;;;;;;2.03;0.90;;;18.60;1.00;;;;;;5060567;28;20271;-89
2022/05/18 04:28:32;;;;;;;3.38;0.70;;;19.00;1.00;;;;;;5060789;28;20180;-88
2022/05/18 04:31:04;;;;;;;2.78;1.52;;;19.40;1.00;;;;;;5062639;28;20285;-92
2022/05/18 04:33:31;;;;;;;2.65;1.27;;;19.80;1.00;;;;;;5063610;28;20197;-86
2022/05/18 04:36:04;;;;;;;1.70;0.80;;;20.10;1.00;;;;;;5063614;28;20220;-87
2022/05/18 04:38:33;;;;;;;6.47;1.10;;;20.40;1.00;;;;;;5061199;28;20219;-88
2022/05/18 04:41:03;;;;;;;4.30;1.20;;;20.50;1.00;;;;;;5061951;28;20181;-86
2022/05/18 04:43:51;;;;;;;1.60;0.90;;;20.80;1.00;;;;;;5061375;28;20300;-88
2022/05/18 04:46:18;;;;;;;4.57;1.10;;;21.20;1.00;;;;;;5060375;28;20193;-88
2022/05/18 04:48:45;;;;;;;6.90;1.40;;;21.50;1.00;;;;;;5060492;28;20193;-88
2022/05/18 04:51:30;;;;;;;4.45;1.05;;;22.10;1.00;;;;;;5061352;28;20224;-88
2022/05/18 04:53:58;;;;;;;;;;;22.50;1.00;;;;;;5059852;28;20482;-86
2022/05/18 04:56:30;;;;;;;;;;;22.90;1.00;;;;;;5062296;28;19921;-87
2022/05/18 04:59:00;;;;;;;7.90;1.20;;;23.20;1.00;;;;;;5055841;28;20202;-85
2022/05/18 05:01:30;;;;;;;6.28;1.00;;;23.50;1.00;;;;;;5057803;28;20209;-90
2022/05/18 05:04:09;;;;;;;1.63;0.90;;;23.60;1.00;;;;;;5058645;28;20189;-88
2022/05/18 05:06:36;;;;;;;6.95;0.98;;;23.80;1.00;;;;;;5056751;28;20200;-87
2022/05/18 05:09:05;;;;;;;3.45;1.08;;;24.00;1.00;;;;;;5059832;28;20200;-88
2022/05/18 05:11:32;;;;;;;5.65;1.00;;;24.30;1.00;;;;;;5062630;28;20187;-83
2022/05/18 05:14:13;;;;;;;1.45;0.70;;;24.60;1.00;;;;;;5060131;28;20197;-86
2022/05/18 05:16:40;;;;;;;2.20;0.90;;;24.40;1.00;;;;;;5061447;28;20193;-87
2022/05/18 05:19:07;;;;;;;2.75;0.75;;;24.60;1.00;;;;;;5053822;28;20227;-88
2022/05/18 05:21:35;;;;;;;2.55;0.90;;;24.70;1.00;;;;;;5055676;28;20255;-85
2022/05/18 05:24:05;;;;;;;6.20;0.90;;;24.80;1.00;;;;;;5057919;28;20266;-84
2022/05/18 05:26:32;;;;;;;1.67;1.00;;;24.90;1.00;;;;;;5060022;28;20632;-86
2022/05/18 05:28:59;;;;;;;3.08;0.90;;;24.90;1.00;;;;;;5056330;28;20201;-89
2022/05/18 05:31:35;;;;;;;1.65;0.90;;;24.70;1.00;;;;;;5057329;28;20185;-87
2022/05/18 05:34:06;;;;;;;5.38;1.00;;;25.10;1.00;;;;;;5060654;28;20589;-86
2022/05/18 05:36:34;;;;;;;5.13;1.20;;;25.60;1.00;;;;;;5059302;28;20217;-85
2022/05/18 05:39:01;;;;;;;2.58;1.10;;;26.00;1.00;;;;;;5058772;28;20254;-90
2022/05/18 05:41:47;;;;;;;1.50;0.85;;;26.40;1.00;;;;;;5056899;28;20256;-90
2022/05/18 05:44:14;;;;;;;2.78;0.90;;;26.60;1.00;;;;;;5059721;28;20177;-90
2022/05/18 05:46:41;;;;;;;5.38;1.17;;;26.50;1.00;;;;;;5060149;28;20664;-85
2022/05/18 05:49:11;;;;;;;2.40;1.00;;;26.50;1.00;;;;;;5055629;28;20197;-89
2022/05/18 05:51:38;;;;;;;4.70;1.10;;;26.30;1.00;;;;;;5058919;28;20204;-85
2022/05/18 05:54:05;;;;;;;2.67;1.23;;;26.20;1.00;;;;;;5062247;28;20193;-87
2022/05/18 05:56:44;;;;;;;5.53;0.90;;;26.10;1.00;;;;;;5059618;28;20243;-87
2022/05/18 05:59:21;;;;;;;7.97;1.23;;;26.20;1.00;;;;;;5057106;28;20188;-84
2022/05/18 06:01:50;;;;;;;2.88;1.08;;;26.10;1.00;;;;;;5060923;28;20176;-86
2022/05/18 06:04:17;;;;;;;3.35;1.00;;;26.30;1.00;;;;;;5041607;28;20232;-86
2022/05/18 06:06:49;;;;;;;3.72;1.17;;;26.40;1.00;;;;;;5036627;28;20194;-86
2022/05/18 06:09:17;;;;;;;1.30;1.10;;;26.50;1.00;;;;;;5037967;28;20181;-89
2022/05/18 06:11:50;;;;;;;7.68;1.40;;;26.80;1.00;;;;;;5039976;28;20619;-88
2022/05/18 06:14:18;;;;;;;;;;;27.30;1.00;;;;;;5041681;28;20111;-90
2022/05/18 06:16:46;;;;;;;;;;;27.70;1.00;;;;;;5040011;28;20012;-87
2022/05/18 06:19:13;;;;;;;;;;;27.80;1.00;;;;;;5044773;28;19985;-86
2022/05/18 06:21:47;;;;;;;1.83;1.30;;;27.90;1.00;;;;;;5040284;28;20195;-89
2022/05/18 06:24:19;;;;;;;2.45;1.30;;;28.10;1.00;;;;;;5040249;28;20186;-87
2022/05/18 06:26:46;;;;;;;3.83;1.08;;;28.20;1.00;;;;;;5040395;28;20201;-85
2022/05/18 06:29:13;;;;;;;4.05;1.20;;;27.90;1.00;;;;;;5041488;28;20169;-86
2022/05/18 06:31:47;;;;;;;5.13;1.13;;;27.50;1.00;;;;;;5037788;28;20225;-88
2022/05/18 06:34:20;;;;;;;2.30;1.33;;;27.20;1.00;;;;;;5054419;28;20185;-89
2022/05/18 06:36:48;;;;;;;4.57;2.47;;;26.90;1.00;;;;;;5036121;28;20629;-84
2022/05/18 06:39:16;;;;;;;3.13;1.35;;;27.00;1.00;;;;;;5041223;28;20194;-85
2022/05/18 06:41:46;;;;;;;24.60;2.60;;;27.60;1.00;;;;;;5038173;28;20189;-87
2022/05/18 06:44:13;;;;;;;4.45;1.48;;;28.20;1.00;;;;;;5038882;28;20182;-84
2022/05/18 06:46:44;;;;;;;4.78;1.40;;;28.10;1.00;;;;;;5033768;28;20283;-87
2022/05/18 06:49:23;;;;;;;5.32;1.35;;;28.10;1.00;;;;;;5042088;28;20860;-88
2022/05/18 06:51:50;;;;;;;2.83;1.60;;;28.20;1.00;;;;;;5033384;28;20181;-86
2022/05/18 06:54:30;;;;;;;3.30;1.40;;;28.50;1.00;;;;;;5037319;28;20567;-88
2022/05/18 06:56:57;;;;;;;6.35;1.40;;;28.70;1.00;;;;;;5032398;28;20232;-88
2022/05/18 06:59:24;;;;;;;3.83;1.00;;;28.10;1.00;;;;;;5043000;28;20205;-86
2022/05/18 07:01:51;;;;;;;2.60;1.20;;;27.70;1.00;;;;;;5038917;28;20200;-85
2022/05/18 07:04:19;;;;;;;3.30;1.55;;;27.50;1.00;;;;;;5057344;28;20216;-89
2022/05/18 07:06:47;;;;;;;1.58;1.08;;;27.70;1.00;;;;;;5058458;28;20267;-89
2022/05/18 07:09:19;;;;;;;1.45;1.00;;;27.60;1.00;;;;;;5056701;28;20201;-85
2022/05/18 07:11:49;;;;;;;4.03;1.20;;;27.30;1.00;;;;;;5058249;28;20538;-88
2022/05/18 07:14:16;;;;;;;1.98;1.20;;;27.30;1.00;;;;;;5056122;28;20275;-85
2022/05/18 07:16:51;;;;;;;4.57;1.10;;;27.60;1.00;;;;;;5060263;28;20250;-87
2022/05/18 07:19:20;;;;;;;3.95;1.58;;;28.10;1.00;;;;;;5058815;28;20185;-88
2022/05/18 07:21:50;;;;;;;4.20;1.08;;;28.10;1.00;;;;;;5063441;28;20177;-88
2022/05/18 07:24:18;;;;;;;1.73;0.90;;;28.30;1.00;;;;;;5061392;28;20197;-85
2022/05/18 07:26:45;;;;;;;1.83;1.00;;;28.40;1.00;;;;;;5061503;28;20217;-86
2022/05/18 07:29:12;;;;;;;3.90;1.08;;;28.20;1.00;;;;;;5063805;28;20201;-89
2022/05/18 07:34:28;;;;;;;17.75;1.38;;;28.40;1.00;;;;;;5045900;28;20188;-88
2022/05/18 07:36:55;;;;;;;2.22;1.10;;;28.60;1.00;;;;;;5043139;28;20243;-86
2022/05/18 07:39:30;;;;;;;4.20;1.20;;;28.60;1.00;;;;;;5043528;28;20224;-90
2022/05/18 07:42:05;;;;;;;3.58;0.90;;;28.80;1.00;;;;;;5048012;28;20181;-87
2022/05/18 07:44:37;;;;;;;;;;;29.10;1.00;;;;;;5057292;28;20044;-88
2022/05/18 07:47:06;;;;;;;;;;;29.40;1.00;;;;;;5062067;28;19958;-90
2022/05/18 07:49:42;;;;;;;;;;;29.70;1.00;;;;;;5064824;28;19924;-86
2022/05/18 07:54:50;;;;;;;;;;;29.60;1.00;;;;;;5059164;28;19944;-84
2022/05/18 07:57:17;;;;;;;;;;;29.50;1.00;;;;;;5056549;28;20003;-87
2022/05/18 07:59:44;;;;;;;;;;;29.30;1.00;;;;;;5067975;28;19951;-88
2022/05/18 08:02:21;;;;;;;9.52;1.67;;;29.30;1.00;;;;;;5054783;28;20160;-86
2022/05/18 08:04:49;;;;;;;1.50;0.90;;;29.40;1.00;;;;;;5042893;28;20264;-86
2022/05/18 08:07:34;;;;;;;5.65;1.00;;;29.40;1.00;;;;;;5041696;28;20292;-89
2022/05/18 08:15:30;;;;;;;4.93;1.05;;;30.10;1.00;;;;;;5039062;28;20208;-88
2022/05/18 08:17:57;;;;;;;2.78;1.17;;;30.00;1.00;;;;;;5044972;28;20208;-89
2022/05/18 08:20:30;;;;;;;4.18;2.53;;;30.20;1.00;;;;;;5040117;28;20244;-86
2022/05/18 08:22:57;;;;;;;1.67;0.85;;;30.60;1.00;;;;;;5042926;28;20217;-84
2022/05/18 08:25:27;;;;;;;5.45;1.00;;;30.80;1.00;;;;;;5037040;28;20272;-86
2022/05/18 08:27:57;;;;;;;2.72;1.00;;;30.80;1.00;;;;;;5038152;28;20267;-89
2022/05/18 08:30:24;;;;;;;1.80;0.80;;;30.70;1.00;;;;;;5042981;28;20228;-88
2022/05/18 08:32:51;;;;;;;;;;;30.80;1.00;;;;;;5050927;28;20052;-86
2022/05/18 08:35:18;;;;;;;;;;;31.20;1.00;;;;;;5046069;28;19967;-84
2022/05/18 08:37:47;;;;;;;;;;;31.10;1.00;;;;;;5043958;28;19920;-84
2022/05/18 08:40:26;;;;;;;2.22;1.00;;;30.80;1.00;;;;;;5040374;28;20157;-86
2022/05/18 08:42:53;;;;;;;3.15;1.10;;;30.50;1.00;;;;;;5043594;28;20181;-88
2022/05/18 08:45:21;;;;;;;2.13;0.93;;;30.10;1.00;;;;;;5039787;28;20573;-88
2022/05/18 08:47:55;;;;;;;1.80;0.85;;;30.10;1.00;;;;;;5042153;28;20202;-87
2022/05/18 08:50:28;;;;;;;1.70;1.00;;;30.20;1.00;;;;;;5038115;28;20201;-89
2022/05/18 08:53:29;;;;;;;;;;;;;;;;;;;;;
2022/05/18 08:56:03;;;;;;;5.78;1.10;;;29.80;1.00;;;;;;5038300;28;20744;-87
2022/05/18 08:58:39;;;;;;;5.07;1.02;;;29.30;1.00;;;;;;5042371;28;20194;-85
2022/05/18 09:01:27;;;;;;;3.45;1.27;;;29.40;1.00;;;;;;5036542;28;20185;-85
2022/05/18 09:03:58;;;;;;;5.13;0.90;;;29.70;1.00;;;;;;5042399;28;20189;-85
2022/05/18 09:06:31;;;;;;;1.70;0.80;;;29.90;1.00;;;;;;5042270;28;20576;-86
2022/05/18 09:11:50;;;;;;;1.50;1.00;;;30.00;1.00;;;;;;5042378;28;20224;-88
2022/05/18 09:14:20;;;;;;;1.30;0.90;;;29.70;1.00;;;;;;5039292;28;20240;-88
2022/05/18 09:16:58;;;;;;;2.38;1.10;;;29.80;1.00;;;;;;5040933;28;20206;-88
2022/05/18 09:19:32;;;;;;;2.08;0.98;;;29.70;1.00;;;;;;5042304;28;20181;-85
2022/05/18 09:22:15;;;;;;;1.58;1.05;;;29.60;1.00;;;;;;5039547;28;20186;-90
2022/05/18 09:25:00;;;;;;;7.35;1.10;;;29.60;1.00;;;;;;5054931;28;20190;-85
2022/05/18 09:27:41;;;;;;;3.17;1.08;;;29.20;1.00;;;;;;5058610;28;20711;-84
2022/05/18 09:30:16;;;;;;;2.60;1.08;;;28.70;1.00;;;;;;5058343;28;20181;-85
2022/05/18 09:33:08;;;;;;;5.78;1.05;;;28.40;1.00;;;;;;5060840;28;20177;-86
2022/05/18 09:36:17;;;;;;;3.67;1.10;;;27.90;1.00;;;;;;5056711;28;20247;-87
2022/05/18 09:38:54;;;;;;;2.60;1.00;;;27.20;1.00;;;;;;5019641;28;20247;-86
2022/05/18 09:41:27;;;;;;;6.03;1.20;;;26.50;1.00;;;;;;5027911;28;20173;-86
2022/05/18 09:44:07;;;;;;;2.13;1.20;;;26.10;1.00;;;;;;5063934;28;20172;-83
2022/05/18 09:46:45;;;;;;;2.13;1.13;;;25.80;1.00;;;;;;5056873;28;20232;-85
2022/05/18 09:49:18;;;;;;;2.10;0.98;;;25.50;1.00;;;;;;5052641;28;20578;-86
2022/05/18 09:51:46;;;;;;;11.07;1.92;;;25.40;1.00;;;;;;5057286;28;20181;-84
2022/05/18 09:54:13;;;;;;;5.10;1.02;;;25.40;1.00;;;;;;5045171;28;20178;-88
2022/05/18 09:56:51;;;;;;;3.22;0.85;;;25.20;1.00;;;;;;5037463;28;20256;-83
2022/05/18 09:59:55;;;;;;;4.28;1.00;;;25.10;1.00;;;;;;5041544;28;20273;-88
2022/05/18 10:08:11;;;;;;;6.32;2.00;;;24.90;1.00;;;;;;5040569;28;20161;-86
2022/05/18 10:10:44;;;;;;;2.75;1.00;;;24.80;1.00;;;;;;5038536;28;20600;-83
2022/05/18 10:13:15;;;;;;;5.55;2.70;;;24.60;1.00;;;;;;5034916;28;20186;-87
2022/05/18 10:15:45;;;;;;;3.20;1.30;;;24.30;1.00;;;;;;5040195;28;20635;-87
2022/05/18 10:18:26;;;;;;;3.05;1.00;;;24.10;1.00;;;;;;5036438;28;20662;-88
2022/05/18 10:21:12;;;;;;;4.70;0.90;;;24.00;1.00;;;;;;5040329;28;20228;-88
2022/05/18 10:23:45;;;;;;;6.90;4.50;;;23.90;1.00;;;;;;5044062;28;20170;-86
2022/05/18 10:26:23;;;;;;;2.22;1.30;;;23.60;1.00;;;;;;5044350;28;20212;-84
2022/05/18 10:28:59;;;;;;;2.42;1.27;;;23.60;1.00;;;;;;5040459;28;20192;-85
2022/05/18 10:31:31;;;;;;;4.30;1.85;;;23.50;1.00;;;;;;5040916;28;20195;-88
2022/05/18 10:34:25;;;;;;;4.28;1.10;;;23.50;1.00;;;;;;5038005;28;20186;-87
2022/05/18 10:36:54;;;;;;;2.30;1.20;;;23.60;1.00;;;;;;5035342;28;20678;-84
2022/05/18 10:39:36;;;;;;;3.45;1.42;;;23.60;1.00;;;;;;5038476;28;20217;-86
2022/05/18 10:42:10;;;;;;;2.25;1.20;;;23.50;1.00;;;;;;5041535;28;20213;-85
2022/05/18 10:44:39;;;;;;;3.03;1.00;;;23.40;1.00;;;;;;5038912;28;20205;-86
2022/05/18 10:47:26;;;;;;;2.58;0.95;;;23.40;1.00;;;;;;5038766;28;20214;-87
2022/05/18 10:50:09;;;;;;;5.95;1.40;;;23.20;1.00;;;;;;5043011;28;20186;-86
2022/05/18 10:52:45;;;;;;;3.45;1.10;;;23.10;1.00;;;;;;5038971;28;20185;-88
2022/05/18 10:55:16;;;;;;;3.13;1.20;;;23.20;1.00;;;;;;5055708;28;20637;-88
2022/05/18 10:57:54;;;;;;;;;;;23.10;1.00;;;;;;5058584;28;20185;-85
2022/05/18 11:00:33;;;;;;;3.70;1.15;;;23.20;1.00;;;;;;5060861;28;20056;-88
2022/05/18 11:03:07;;;;;;;2.60;1.23;;;23.40;1.00;;;;;;5060123;28;20227;-85
2022/05/18 11:05:46;;;;;;;2.85;1.30;;;23.40;1.00;;;;;;5063603;28;20609;-84
2022/05/18 11:08:16;;;;;;;3.33;1.10;;;23.40;1.00;;;;;;5059751;28;20192;-83
2022/05/18 11:10:52;;;;;;;2.65;1.00;;;23.50;1.00;;;;;;5062432;28;20199;-86
2022/05/18 11:13:36;;;;;;;2.92;1.15;;;23.50;1.00;;;;;;5057343;28;20180;-85
2022/05/18 11:16:20;;;;;;;3.08;1.08;;;23.60;1.00;;;;;;5040291;28;20186;-87
2022/05/18 11:19:03;;;;;;;4.57;1.00;;;23.60;1.00;;;;;;5042580;28;20190;-85
2022/05/18 11:21:47;;;;;;;7.70;1.40;;;23.50;1.00;;;;;;5040189;28;20227;-86
2022/05/18 11:24:24;;;;;;;7.80;1.30;;;23.70;1.00;;;;;;5041292;28;20243;-88
2022/05/18 11:27:02;;;;;;;5.63;1.10;;;23.70;1.00;;;;;;5038593;28;20256;-87
2022/05/18 11:29:50;;;;;;;2.28;1.23;;;23.70;1.00;;;;;;5040295;28;20243;-89
2022/05/18 11:32:26;;;;;;;2.17;1.10;;;23.60;1.00;;;;;;5042751;28;20193;-86
2022/05/18 11:35:05;;;;;;;5.63;0.93;;;23.60;1.00;;;;;;5061058;28;20741;-85
2022/05/18 11:37:59;;;;;;;3.28;1.00;;;23.70;1.00;;;;;;5058653;28;20680;-86
2022/05/18 11:40:37;;;;;;;4.53;1.00;;;23.70;1.00;;;;;;5060956;28;20220;-86
2022/05/18 11:43:28;;;;;;;3.97;0.93;;;23.60;1.00;;;;;;5060379;28;20204;-85
2022/05/18 11:46:17;;;;;;;3.67;1.10;;;23.50;1.00;;;;;;5063188;28;20204;-87
2022/05/18 11:49:01;;;;;;;3.30;1.00;;;23.60;1.00;;;;;;5063210;28;20242;-86
2022/05/18 11:51:47;;;;;;;1.92;0.80;;;23.70;1.00;;;;;;5062481;28;20201;-85
2022/05/18 11:54:29;;;;;;;7.18;1.52;;;23.70;1.00;;;;;;5049869;28;20207;-85
2022/05/18 11:57:03;;;;;;;2.13;1.00;;;23.80;1.00;;;;;;5045370;28;20283;-83
2022/05/18 12:00:03;;;;;;;2.10;1.00;;;23.80;1.00;;;;;;5062927;28;20585;-86
2022/05/18 12:03:09;;;;;;;4.50;1.17;;;23.90;1.00;;;;;;5039962;28;20185;-85
2022/05/18 12:05:56;;;;;;;5.97;2.13;;;23.90;1.00;;;;;;5034256;28;20197;-84
2022/05/18 12:08:49;;;;;;;7.95;1.17;;;23.90;1.00;;;;;;5039827;28;20208;-83
2022/05/18 12:11:26;;;;;;;1.83;1.33;;;23.90;1.00;;;;;;5045045;28;20170;-86
2022/05/18 12:14:12;;;;;;;4.60;1.30;;;23.80;1.00;;;;;;5040981;28;20181;-88
2022/05/18 12:16:52;;;;;;;1.60;0.90;;;23.90;1.00;;;;;;5040526;28;20181;-85
2022/05/18 12:22:15;;;;;;;2.55;1.00;;;23.80;1.00;;;;;;5041633;28;20201;-88
2022/05/18 12:24:45;;;;;;;3.08;1.23;;;23.80;1.00;;;;;;5056811;28;20169;-88
2022/05/18 12:27:15;;;;;;;2.63;1.10;;;23.90;1.00;;;;;;5064788;28;20239;-89
2022/05/18 12:29:49;;;;;;;3.58;1.13;;;24.00;1.00;;;;;;5060933;28;20196;-86
2022/05/18 12:32:17;;;;;;;6.32;1.10;;;24.10;1.00;;;;;;5060657;28;20181;-83
2022/05/18 12:35:02;;;;;;;4.00;1.17;;;24.00;1.00;;;;;;5059797;28;20258;-88
2022/05/18 12:37:36;;;;;;;7.63;1.20;;;24.10;1.00;;;;;;5064677;28;20233;-86
2022/05/18 12:40:31;;;;;;;3.47;1.38;;;24.10;1.00;;;;;;5065247;28;20180;-88
2022/05/18 12:43:15;;;;;;;4.35;1.10;;;24.10;1.00;;;;;;5062819;28;20217;-88
2022/05/18 12:45:48;;;;;;;4.80;1.20;;;23.90;1.00;;;;;;5057647;28;20204;-87
2022/05/18 12:48:38;;;;;;;3.58;1.02;;;23.80;1.00;;;;;;5058530;28;20251;-83
2022/05/18 12:51:15;;;;;;;4.07;0.98;;;23.90;1.00;;;;;;5064178;28;20192;-82
2022/05/18 12:54:04;;;;;;;1.35;1.05;;;23.80;1.00;;;;;;5050587;28;20638;-83
2022/05/18 12:56:51;;;;;;;1.40;0.90;;;23.70;1.00;;;;;;5039259;28;20265;-85
2022/05/18 12:59:20;;;;;;;4.90;1.30;;;23.60;1.00;;;;;;5044837;28;20196;-84
2022/05/18 13:01:53;;;;;;;16.05;2.67;;;23.50;1.00;;;;;;5035794;28;20530;-87
2022/05/18 13:04:44;;;;;;;3.95;1.15;;;23.50;1.00;;;;;;5047210;28;20193;-83
2022/05/18 13:07:26;;;;;;;5.88;1.05;;;23.60;1.00;;;;;;5062593;28;20227;-87
2022/05/18 13:10:05;;;;;;;1.90;1.05;;;23.60;1.00;;;;;;5061746;28;20197;-84
2022/05/18 13:13:04;;;;;;;3.05;0.88;;;23.60;1.00;;;;;;5066739;28;20271;-86
2022/05/18 13:15:53;;;;;;;3.83;1.23;;;23.50;1.00;;;;;;5055112;28;20185;-87
2022/05/18 13:18:26;;;;;;;3.25;1.10;;;23.60;1.00;;;;;;5058652;28;20189;-88
2022/05/18 13:20:59;;;;;;;3.92;1.00;;;23.60;1.00;;;;;;5054552;28;20173;-84
2022/05/18 13:24:06;;;;;;;;;;;;;;;;;;;;;
2022/05/18 13:26:47;;;;;;;4.68;1.35;;;23.70;1.00;;;;;;5062337;28;20277;-87
2022/05/18 13:29:18;;;;;;;2.13;1.20;;;23.60;1.00;;;;;;5059922;28;20181;-87
2022/05/18 13:31:50;;;;;;;2.85;1.05;;;23.60;1.00;;;;;;5058030;28;20209;-85
2022/05/18 13:34:21;;;;;;;10.10;1.73;;;23.60;1.00;;;;;;5059853;28;20164;-85
2022/05/18 13:36:52;;;;;;;9.57;1.60;;;23.60;1.00;;;;;;5059586;28;20259;-85
2022/05/18 13:39:30;;;;;;;6.07;1.10;;;23.60;1.00;;;;;;5061441;28;20201;-84
2022/05/18 13:42:03;;;;;;;1.45;0.90;;;23.50;1.00;;;;;;5057378;28;20276;-83
2022/05/18 13:44:30;;;;;;;1.45;1.17;;;23.50;1.00;;;;;;5056731;28;20239;-84
2022/05/18 13:47:01;;;;;;;1.88;1.10;;;23.60;1.00;;;;;;5059534;28;20224;-86
2022/05/18 13:49:34;;;;;;;2.13;1.15;;;23.60;1.00;;;;;;5053159;28;20554;-84
2022/05/18 13:52:12;;;;;;;1.52;1.00;;;23.60;1.00;;;;;;5054720;28;20238;-85
2022/05/18 13:54:44;;;;;;;1.48;0.90;;;23.50;1.00;;;;;;5058892;28;20220;-84
2022/05/18 13:57:19;;;;;;;3.10;1.33;;;23.40;1.00;;;;;;5058349;28;20192;-88
2022/05/18 14:00:03;;;;;;;6.47;2.97;;;23.40;1.00;;;;;;5055672;28;20242;-84
2022/05/18 14:02:37;;;;;;;17.52;9.25;;;23.30;1.00;;;;;;5057076;28;20649;-85
2022/05/18 14:05:15;;;;;;;3.92;1.90;;;23.30;1.00;;;;;;5056650;28;20274;-87
2022/05/18 14:07:44;;;;;;;2.90;1.50;;;23.30;1.00;;;;;;5061164;28;20274;-85
2022/05/18 14:10:17;;;;;;;9.95;1.80;;;23.30;1.00;;;;;;5057265;28;20193;-87